createdAt,value
2018-06-21T00:09:06.879Z,21.30
2018-06-21T00:11:35.196Z,21.30
2018-06-21T00:14:04.600Z,21.40
2018-06-21T00:16:33.154Z,21.40
2018-06-21T00:19:01.483Z,21.20
2018-06-21T00:23:57.851Z,21.10
2018-06-21T00:26:26.316Z,21.20
2018-06-21T00:28:56.683Z,21.10
2018-06-21T00:31:24.995Z,21.20
2018-06-21T00:33:53.315Z,21.10
2018-06-21T00:36:21.590Z,21.20
2018-06-21T00:38:49.827Z,21.00
2018-06-21T00:41:18.403Z,21.00
2018-06-21T00:43:46.663Z,21.00
2018-06-21T00:46:14.959Z,21.00
2018-06-21T00:48:43.229Z,20.90
2018-06-21T00:51:11.499Z,20.70
2018-06-21T00:53:40.341Z,20.80
2018-06-21T00:56:17.527Z,20.80
2018-06-21T00:58:46.891Z,20.80
2018-06-21T01:01:16.249Z,20.80
2018-06-21T01:03:44.715Z,20.80
2018-06-21T01:06:13.576Z,20.80
2018-06-21T01:08:41.998Z,20.80
2018-06-21T01:11:10.305Z,20.80
2018-06-21T01:32:31.326Z,20.80
2018-06-21T01:34:59.671Z,20.50
2018-06-21T01:37:29.113Z,20.60
2018-06-21T01:39:57.420Z,20.60
2018-06-21T01:42:25.713Z,20.50
2018-06-21T01:44:54.071Z,20.50
2018-06-21T01:47:22.350Z,20.50
2018-06-21T01:49:50.778Z,20.40
2018-06-21T01:52:19.151Z,20.50
2018-06-21T01:54:47.529Z,20.40
2018-06-21T01:57:15.834Z,20.40
2018-06-21T01:59:44.434Z,20.40
2018-06-21T02:02:12.733Z,20.40
2018-06-21T02:04:41.118Z,20.20
2018-06-21T02:07:09.401Z,20.20
2018-06-21T02:12:06.047Z,20.20
2018-06-21T02:14:34.326Z,20.10
2018-06-21T02:17:02.632Z,20.10
2018-06-21T02:19:30.982Z,20.00
2018-06-21T02:21:59.287Z,20.00
2018-06-21T02:24:27.606Z,20.10
2018-06-21T02:26:55.928Z,20.10
2018-06-21T02:29:24.199Z,20.00
2018-06-21T02:31:52.729Z,20.00
2018-06-21T02:34:21.074Z,20.10
2018-06-21T02:36:49.414Z,20.10
2018-06-21T02:41:45.735Z,19.60
2018-06-21T02:44:14.086Z,19.80
2018-06-21T02:46:42.486Z,20.00
2018-06-21T02:49:10.815Z,20.00
2018-06-21T02:51:39.113Z,19.90
2018-06-21T02:54:07.462Z,19.80
2018-06-21T02:59:03.858Z,19.70
2018-06-21T03:01:32.147Z,19.50
2018-06-21T03:04:00.547Z,19.50
2018-06-21T03:06:28.756Z,19.70
2018-06-21T03:08:57.044Z,19.60
2018-06-21T03:11:25.398Z,19.70
2018-06-21T03:13:53.813Z,19.80
2018-06-21T03:16:22.081Z,19.80
2018-06-21T03:18:51.485Z,19.80
2018-06-21T03:21:19.773Z,19.70
2018-06-21T03:23:56.547Z,19.70
2018-06-21T03:26:24.838Z,19.60
2018-06-21T03:28:53.212Z,19.60
2018-06-21T03:31:21.563Z,19.60
2018-06-21T03:33:49.890Z,19.70
2018-06-21T03:36:18.283Z,19.70
2018-06-21T03:38:46.551Z,19.70
2018-06-21T03:41:14.879Z,19.60
2018-06-21T03:43:43.178Z,19.60
2018-06-21T03:46:11.610Z,19.60
2018-06-21T03:51:07.999Z,19.50
2018-06-21T03:53:36.349Z,19.50
2018-06-21T03:56:04.730Z,19.60
2018-06-21T03:58:33.085Z,19.60
2018-06-21T04:01:01.622Z,19.60
2018-06-21T04:03:29.997Z,19.50
2018-06-21T04:05:58.485Z,19.60
2018-06-21T04:08:26.844Z,19.60
2018-06-21T04:10:55.152Z,19.40
2018-06-21T04:13:23.497Z,19.30
2018-06-21T04:15:51.990Z,19.50
2018-06-21T04:18:37.239Z,19.70
2018-06-21T04:21:07.179Z,19.70
2018-06-21T04:23:35.517Z,19.80
2018-06-21T04:28:31.807Z,19.90
2018-06-21T04:31:00.481Z,20.00
2018-06-21T04:33:28.880Z,20.10
2018-06-21T04:35:57.184Z,20.10
2018-06-21T04:38:25.592Z,20.20
2018-06-21T04:40:53.889Z,20.30
2018-06-21T04:43:22.227Z,20.30
2018-06-21T04:45:50.550Z,20.30
2018-06-21T04:48:18.967Z,20.30
2018-06-21T04:50:47.345Z,20.30
2018-06-21T04:53:16.844Z,20.40
2018-06-21T04:55:45.272Z,20.50
2018-06-21T04:58:13.615Z,20.60
2018-06-21T05:00:41.973Z,20.70
2018-06-21T05:03:10.254Z,20.80
2018-06-21T05:05:38.658Z,20.80
2018-06-21T05:08:06.959Z,21.00
2018-06-21T05:10:35.237Z,21.00
2018-06-21T05:13:03.536Z,21.10
2018-06-21T05:15:31.817Z,21.20
2018-06-21T05:18:00.086Z,21.30
2018-06-21T05:20:28.448Z,21.30
2018-06-21T05:25:24.754Z,21.50
2018-06-21T05:27:53.105Z,21.60
2018-06-21T05:30:25.803Z,21.70
2018-06-21T05:32:54.113Z,21.80
2018-06-21T05:35:22.368Z,21.90
2018-06-21T05:37:50.744Z,22.00
2018-06-21T05:40:29.987Z,22.10
2018-06-21T05:42:58.889Z,22.20
2018-06-21T05:45:27.157Z,22.30
2018-06-21T05:47:55.736Z,22.50
2018-06-21T05:50:24.053Z,22.60
2018-06-21T05:52:53.331Z,22.70
2018-06-21T05:55:21.616Z,22.70
2018-06-21T05:57:49.920Z,22.90
2018-06-21T06:00:18.275Z,23.00
2018-06-21T06:02:46.567Z,23.00
2018-06-21T06:05:14.995Z,23.00
2018-06-21T06:07:43.519Z,23.10
2018-06-21T06:10:11.838Z,23.00
2018-06-21T06:12:40.157Z,23.10
2018-06-21T06:15:08.464Z,23.20
2018-06-21T06:17:36.960Z,23.20
2018-06-21T06:20:05.775Z,23.20
2018-06-21T06:22:34.183Z,23.30
2018-06-21T06:25:02.422Z,23.40
2018-06-21T06:27:30.763Z,23.50
2018-06-21T06:32:27.107Z,23.60
2018-06-21T06:34:55.612Z,23.60
2018-06-21T06:37:23.959Z,23.70
2018-06-21T06:39:52.257Z,23.50
2018-06-21T06:42:20.542Z,23.60
2018-06-21T06:44:48.790Z,23.70
2018-06-21T06:47:17.295Z,23.70
2018-06-21T06:49:45.572Z,23.70
2018-06-21T06:52:13.901Z,23.80
2018-06-21T06:54:42.291Z,23.90
2018-06-21T06:57:10.511Z,23.90
2018-06-21T06:59:38.763Z,24.00
2018-06-21T07:02:07.189Z,24.10
2018-06-21T07:04:35.616Z,24.00
2018-06-21T07:07:03.900Z,24.10
2018-06-21T07:09:32.242Z,24.10
2018-06-21T07:12:00.504Z,24.10
2018-06-21T07:14:28.835Z,24.20
2018-06-21T07:16:57.131Z,24.10
2018-06-21T07:19:25.407Z,24.20
2018-06-21T07:21:53.791Z,24.30
2018-06-21T07:24:22.135Z,24.30
2018-06-21T07:26:50.412Z,24.30
2018-06-21T07:29:18.677Z,24.20
2018-06-21T07:31:46.994Z,24.30
2018-06-21T07:34:15.292Z,24.40
2018-06-21T07:36:43.587Z,24.40
2018-06-21T07:39:11.887Z,24.50
2018-06-21T07:41:40.275Z,24.60
2018-06-21T07:46:36.702Z,24.70
2018-06-21T07:49:05.166Z,24.70
2018-06-21T07:51:33.439Z,24.70
2018-06-21T07:54:01.739Z,24.80
2018-06-21T07:56:30.091Z,24.90
2018-06-21T07:58:58.337Z,25.00
2018-06-21T08:01:26.603Z,25.00
2018-06-21T08:06:23.256Z,25.00
2018-06-21T08:08:51.581Z,25.00
2018-06-21T08:11:19.883Z,25.10
2018-06-21T08:13:48.212Z,25.30
2018-06-21T08:16:16.548Z,25.10
2018-06-21T08:21:12.909Z,25.30
2018-06-21T08:23:41.178Z,25.30
2018-06-21T08:26:09.492Z,25.40
2018-06-21T08:28:37.799Z,25.70
2018-06-21T08:31:06.105Z,26.00
2018-06-21T08:33:35.475Z,26.10
2018-06-21T08:36:03.871Z,26.10
2018-06-21T08:38:32.207Z,25.90
2018-06-21T08:41:00.532Z,25.90
2018-06-21T08:43:28.859Z,25.90
2018-06-21T08:45:57.229Z,25.90
2018-06-21T08:48:25.491Z,25.90
2018-06-21T08:50:53.789Z,25.80
2018-06-21T08:53:22.217Z,25.90
2018-06-21T08:55:50.568Z,25.70
2018-06-21T08:58:18.901Z,25.70
2018-06-21T09:00:47.243Z,25.80
2018-06-21T09:03:15.482Z,25.80
2018-06-21T09:05:43.779Z,25.70
2018-06-21T09:08:13.182Z,25.40
2018-06-21T09:10:41.753Z,25.50
2018-06-21T09:13:10.038Z,25.40
2018-06-21T09:15:38.516Z,25.50
2018-06-21T09:18:06.930Z,25.50
2018-06-21T09:20:35.339Z,25.30
2018-06-21T09:23:03.720Z,25.30
2018-06-21T09:25:31.980Z,25.30
2018-06-21T09:28:00.285Z,25.30
2018-06-21T09:30:28.598Z,25.30
2018-06-21T09:32:56.854Z,25.40
2018-06-21T09:35:25.167Z,25.80
2018-06-21T09:37:58.763Z,25.70
2018-06-21T09:40:32.612Z,25.40
2018-06-21T09:43:06.396Z,25.50
2018-06-21T09:46:43.077Z,25.40
2018-06-21T09:49:11.383Z,25.30
2018-06-21T09:51:39.907Z,25.30
2018-06-21T09:54:08.288Z,25.40
2018-06-21T09:56:36.573Z,25.30
2018-06-21T09:59:04.849Z,25.40
2018-06-21T10:01:33.143Z,25.40
2018-06-21T10:04:01.445Z,25.70
2018-06-21T10:08:57.821Z,26.00
2018-06-21T10:11:26.290Z,25.80
2018-06-21T10:13:54.598Z,26.00
2018-06-21T10:16:23.074Z,26.20
2018-06-21T10:18:51.395Z,26.50
2018-06-21T10:21:19.747Z,26.20
2018-06-21T10:23:48.159Z,26.00
2018-06-21T10:26:16.562Z,25.90
2018-06-21T10:28:44.895Z,26.20
2018-06-21T10:31:13.430Z,25.80
2018-06-21T10:33:41.815Z,25.80
2018-06-21T10:36:10.137Z,26.00
2018-06-21T10:38:39.482Z,26.10
2018-06-21T10:41:07.779Z,26.10
2018-06-21T10:43:36.091Z,26.20
2018-06-21T10:46:04.406Z,26.30
2018-06-21T10:48:32.703Z,26.20
2018-06-21T10:51:00.961Z,26.20
2018-06-21T10:53:29.300Z,26.20
2018-06-21T10:55:57.735Z,26.30
2018-06-21T10:58:26.051Z,26.40
2018-06-21T11:00:54.455Z,26.40
2018-06-21T11:03:22.785Z,26.20
2018-06-21T11:05:51.091Z,26.70
2018-06-21T11:08:19.385Z,26.90
2018-06-21T11:10:47.752Z,26.90
2018-06-21T11:13:16.059Z,26.90
2018-06-21T11:15:44.501Z,26.50
2018-06-21T11:18:13.153Z,26.40
2018-06-21T11:20:41.563Z,26.50
2018-06-21T11:23:09.892Z,26.30
2018-06-21T11:25:38.229Z,26.20
2018-06-21T11:28:07.009Z,26.30
2018-06-21T11:30:35.552Z,26.10
2018-06-21T11:33:03.918Z,26.10
2018-06-21T11:35:32.306Z,26.00
2018-06-21T11:38:00.695Z,26.10
2018-06-21T11:40:29.038Z,26.30
2018-06-21T11:42:57.330Z,26.50
2018-06-21T11:45:25.641Z,26.60
2018-06-21T11:47:53.954Z,26.70
2018-06-21T11:50:22.272Z,26.70
2018-06-21T11:52:50.720Z,26.70
2018-06-21T11:57:47.049Z,26.70
2018-06-21T12:00:15.374Z,26.60
2018-06-21T12:02:43.754Z,26.60
2018-06-21T12:05:12.132Z,26.60
2018-06-21T12:07:40.474Z,26.80
2018-06-21T12:10:08.760Z,26.80
2018-06-21T12:12:37.124Z,26.70
2018-06-21T12:15:05.471Z,26.30
2018-06-21T12:17:33.902Z,26.40
2018-06-21T12:20:02.408Z,26.30
2018-06-21T12:22:30.818Z,26.20
2018-06-21T12:24:59.336Z,26.00
2018-06-21T12:27:27.864Z,25.90
2018-06-21T12:29:56.161Z,26.30
2018-06-21T12:32:24.636Z,26.50
2018-06-21T12:35:11.466Z,26.60
2018-06-21T12:37:39.780Z,26.40
2018-06-21T12:40:08.051Z,26.50
2018-06-21T12:45:04.411Z,26.50
2018-06-21T12:47:32.674Z,26.50
2018-06-21T12:50:00.967Z,26.40
2018-06-21T12:52:29.331Z,26.50
2018-06-21T12:54:57.596Z,26.40
2018-06-21T12:57:25.850Z,26.50
2018-06-21T12:59:54.200Z,26.30
2018-06-21T13:09:13.554Z,26.10
2018-06-21T13:12:53.989Z,26.10
2018-06-21T13:15:22.413Z,26.40
2018-06-21T13:17:50.665Z,26.80
2018-06-21T13:20:18.924Z,26.70
2018-06-21T13:22:47.291Z,26.70
2018-06-21T13:25:15.611Z,26.50
2018-06-21T13:27:43.910Z,26.30
2018-06-21T13:30:12.227Z,26.50
2018-06-21T13:32:40.620Z,26.30
2018-06-21T13:35:08.954Z,26.40
2018-06-21T13:37:37.331Z,26.60
2018-06-21T13:40:05.717Z,26.70
2018-06-21T13:42:33.971Z,26.90
2018-06-21T13:45:02.340Z,27.00
2018-06-21T13:47:30.689Z,26.80
2018-06-21T13:49:59.033Z,26.70
2018-06-21T13:52:27.319Z,26.60
2018-06-21T13:54:55.619Z,26.80
2018-06-21T13:57:23.909Z,26.90
2018-06-21T13:59:52.184Z,26.80
2018-06-21T14:02:20.426Z,26.90
2018-06-21T14:04:48.736Z,26.80
2018-06-21T14:07:17.025Z,26.70
2018-06-21T14:09:45.284Z,26.40
2018-06-21T14:12:13.546Z,26.30
2018-06-21T14:14:41.837Z,26.20
2018-06-21T14:17:10.088Z,25.90
2018-06-21T14:19:38.362Z,26.00
2018-06-21T14:22:06.695Z,25.80
2018-06-21T14:24:35.060Z,25.90
2018-06-21T14:27:03.502Z,26.00
2018-06-21T14:29:31.801Z,26.30
2018-06-21T14:32:00.108Z,26.60
2018-06-21T14:36:56.494Z,26.20
2018-06-21T14:39:24.797Z,26.30
2018-06-21T14:41:53.191Z,26.20
2018-06-21T14:44:21.723Z,25.50
2018-06-21T14:46:50.026Z,25.50
2018-06-21T14:49:18.486Z,25.60
2018-06-21T14:51:46.839Z,25.60
2018-06-21T14:54:15.156Z,25.60
2018-06-21T14:56:43.522Z,25.80
2018-06-21T14:59:11.837Z,26.10
2018-06-21T15:01:40.167Z,26.20
2018-06-21T15:06:36.555Z,26.00
2018-06-21T15:09:08.267Z,25.90
2018-06-21T15:11:36.751Z,25.10
2018-06-21T15:14:05.055Z,25.10
2018-06-21T15:16:33.328Z,25.10
2018-06-21T15:19:01.640Z,25.00
2018-06-21T15:21:29.946Z,24.90
2018-06-21T15:23:58.286Z,24.50
2018-06-21T15:26:26.570Z,24.70
2018-06-21T15:28:54.848Z,24.90
2018-06-21T15:31:23.148Z,24.00
2018-06-21T15:33:51.402Z,24.40
2018-06-21T15:36:19.724Z,23.90
2018-06-21T15:38:48.121Z,24.00
2018-06-21T15:41:16.397Z,24.10
2018-06-21T15:43:44.651Z,24.30
2018-06-21T15:46:13.018Z,24.40
2018-06-21T15:48:41.324Z,24.60
2018-06-21T15:51:09.842Z,24.70
2018-06-21T15:53:38.226Z,24.70
2018-06-21T15:56:06.619Z,24.60
2018-06-21T15:58:34.926Z,24.20
2018-06-21T16:01:03.250Z,23.80
2018-06-21T16:03:31.580Z,24.00
2018-06-21T16:08:27.915Z,24.40
2018-06-21T16:13:24.513Z,24.50
2018-06-21T16:15:52.912Z,24.40
2018-06-21T16:18:21.206Z,24.40
2018-06-21T16:20:49.548Z,24.30
2018-06-21T16:23:17.813Z,24.20
2018-06-21T16:25:46.089Z,24.30
2018-06-21T16:28:14.471Z,24.30
2018-06-21T16:30:42.704Z,24.00
2018-06-21T16:33:10.995Z,23.40
2018-06-21T16:35:39.315Z,23.60
2018-06-21T16:38:07.611Z,23.30
2018-06-21T16:40:35.900Z,23.10
2018-06-21T16:43:04.340Z,23.20
2018-06-21T16:45:32.650Z,23.00
2018-06-21T16:48:00.862Z,23.20
2018-06-21T16:50:29.132Z,23.30
2018-06-21T16:55:25.354Z,23.10
2018-06-21T16:57:54.119Z,23.10
2018-06-21T17:00:22.437Z,23.10
2018-06-21T17:02:50.770Z,23.10
2018-06-21T17:05:19.110Z,23.30
2018-06-21T17:07:47.398Z,23.40
2018-06-21T17:10:15.723Z,23.20
2018-06-21T17:12:44.026Z,23.30
2018-06-21T17:15:12.473Z,23.00
2018-06-21T17:17:41.125Z,22.90
2018-06-21T17:20:09.705Z,23.00
2018-06-21T17:22:38.496Z,23.00
2018-06-21T17:25:07.117Z,22.90
2018-06-21T17:27:35.765Z,22.70
2018-06-21T17:30:04.456Z,22.70
2018-06-21T17:32:33.176Z,22.40
2018-06-21T17:35:01.522Z,22.50
2018-06-21T17:37:29.863Z,22.50
2018-06-21T17:39:58.279Z,23.40
2018-06-21T17:42:26.572Z,24.30
2018-06-21T17:44:54.872Z,25.60
2018-06-21T17:47:23.191Z,25.90
2018-06-21T17:49:51.532Z,25.40
2018-06-21T17:52:20.000Z,25.50
2018-06-21T17:54:48.275Z,25.20
2018-06-21T17:57:16.601Z,24.40
2018-06-21T18:02:12.950Z,23.40
2018-06-21T18:04:41.302Z,23.00
2018-06-21T18:07:09.723Z,23.10
2018-06-21T18:09:38.163Z,22.70
2018-06-21T18:12:06.559Z,22.80
2018-06-21T18:17:02.884Z,22.20
2018-06-21T18:19:31.273Z,22.10
2018-06-21T18:21:59.524Z,21.70
2018-06-21T18:24:27.895Z,21.40
2018-06-21T18:26:56.203Z,21.10
2018-06-21T18:29:25.572Z,21.10
2018-06-21T18:31:53.908Z,21.00
2018-06-21T18:34:22.167Z,21.00
2018-06-21T18:36:50.568Z,20.60
2018-06-21T18:39:18.850Z,20.40
2018-06-21T18:41:47.238Z,20.60
2018-06-21T18:44:15.517Z,20.60
2018-06-21T18:46:43.796Z,20.60
2018-06-21T18:49:12.183Z,20.50
2018-06-21T18:51:40.528Z,20.50
2018-06-21T18:54:09.055Z,20.60
2018-06-21T18:56:37.579Z,20.00
2018-06-21T18:59:06.054Z,20.00
2018-06-21T19:01:34.536Z,20.30
2018-06-21T19:06:36.580Z,20.00
2018-06-21T19:09:12.734Z,20.10
2018-06-21T19:11:46.817Z,20.10
2018-06-21T19:14:15.152Z,20.10
2018-06-21T19:16:43.448Z,20.10
2018-06-21T19:19:11.784Z,20.20
2018-06-21T19:21:40.077Z,20.10
2018-06-21T19:24:08.459Z,19.50
2018-06-21T19:26:36.822Z,19.50
2018-06-21T19:29:05.273Z,19.70
2018-06-21T19:31:34.405Z,19.50
2018-06-21T19:34:02.797Z,19.50
2018-06-21T19:36:31.195Z,19.50
2018-06-21T19:38:59.459Z,19.50
2018-06-21T19:41:27.799Z,19.50
2018-06-21T19:43:56.227Z,19.40
2018-06-21T19:46:24.576Z,19.50
2018-06-21T19:48:52.905Z,19.40
2018-06-21T19:51:21.210Z,19.40
2018-06-21T19:53:49.614Z,19.30
2018-06-21T19:56:18.133Z,19.20
2018-06-21T19:58:46.539Z,19.00
2018-06-21T20:01:14.949Z,19.10
2018-06-21T20:03:43.321Z,19.00
2018-06-21T20:06:11.583Z,18.90
2018-06-21T20:08:39.919Z,19.10
2018-06-21T20:11:13.518Z,18.90
2018-06-21T20:13:46.771Z,19.00
2018-06-21T20:16:15.343Z,19.10
2018-06-21T20:18:43.697Z,19.00
2018-06-21T20:21:12.833Z,18.90
2018-06-21T20:23:45.564Z,18.60
2018-06-21T20:26:14.206Z,18.70
2018-06-21T20:28:42.976Z,18.50
2018-06-21T20:31:12.681Z,18.40
2018-06-21T20:33:42.302Z,18.50
2018-06-21T20:36:11.199Z,18.50
2018-06-21T20:38:39.533Z,18.40
2018-06-21T20:41:08.141Z,18.40
2018-06-21T20:43:36.523Z,18.30
2018-06-21T20:46:05.097Z,18.30
2018-06-21T20:48:33.479Z,18.30
2018-06-21T20:51:01.871Z,18.10
2018-06-21T20:53:30.219Z,18.10
2018-06-21T20:55:59.781Z,17.80
2018-06-21T20:58:28.133Z,18.00
2018-06-21T21:00:57.726Z,17.80
2018-06-21T21:03:26.140Z,17.80
2018-06-21T21:05:54.440Z,17.90
2018-06-21T21:08:22.888Z,17.80
2018-06-21T21:10:51.189Z,17.80
2018-06-21T21:13:19.563Z,17.80
2018-06-21T21:15:47.944Z,17.80
2018-06-21T21:18:16.212Z,17.80
2018-06-21T21:20:44.620Z,17.50
2018-06-21T21:25:40.856Z,17.60
2018-06-21T21:28:09.239Z,17.10
2018-06-21T21:30:37.608Z,17.30
2018-06-21T21:33:05.937Z,17.00
2018-06-21T21:35:34.216Z,17.00
2018-06-21T21:38:02.509Z,17.20
2018-06-21T21:40:30.894Z,17.10
2018-06-21T21:42:59.202Z,17.40
2018-06-21T21:47:55.630Z,16.80
2018-06-21T21:50:23.958Z,16.70
2018-06-21T21:52:52.230Z,16.50
2018-06-21T21:55:20.500Z,16.50
2018-06-21T22:00:41.077Z,16.30
2018-06-21T22:03:09.394Z,16.30
2018-06-21T22:05:37.687Z,16.00
2018-06-21T22:08:06.163Z,16.00
2018-06-21T22:10:34.481Z,15.90
2018-06-21T22:13:02.819Z,15.80
2018-06-21T22:15:31.153Z,16.10
2018-06-21T22:17:59.471Z,16.10
2018-06-21T22:20:27.961Z,15.80
2018-06-21T22:22:56.990Z,16.00
2018-06-21T22:25:25.379Z,15.90
2018-06-21T22:27:53.717Z,16.00
2018-06-21T22:30:22.094Z,16.10
2018-06-21T22:32:50.482Z,16.00
2018-06-21T22:35:18.910Z,15.60
2018-06-21T22:37:47.180Z,15.50
2018-06-21T22:40:16.878Z,15.80
2018-06-21T22:42:45.447Z,15.70
2018-06-21T22:45:14.003Z,16.00
2018-06-21T22:47:42.487Z,16.10
2018-06-21T22:50:10.782Z,16.10
2018-06-21T22:52:39.692Z,16.30
2018-06-21T22:55:09.020Z,16.00
2018-06-21T22:57:37.318Z,15.60
2018-06-21T23:00:05.687Z,16.00
2018-06-21T23:02:33.928Z,15.90
2018-06-21T23:05:02.243Z,15.60
2018-06-21T23:07:30.550Z,15.60
2018-06-21T23:09:58.863Z,15.70
2018-06-21T23:12:27.210Z,15.70
2018-06-21T23:14:55.538Z,15.50
2018-06-21T23:17:23.897Z,15.80
2018-06-21T23:19:52.127Z,15.70
2018-06-21T23:22:20.405Z,15.70
2018-06-21T23:24:48.711Z,15.70
2018-06-21T23:27:17.052Z,15.60
2018-06-21T23:29:45.396Z,15.60
2018-06-21T23:32:13.686Z,15.30
2018-06-21T23:34:42.024Z,15.50
2018-06-21T23:37:10.291Z,15.70
2018-06-21T23:39:38.644Z,15.60
2018-06-21T23:42:06.912Z,15.70
2018-06-21T23:44:35.279Z,15.50
2018-06-21T23:47:03.618Z,15.30
2018-06-21T23:49:32.001Z,15.30
2018-06-21T23:52:00.322Z,15.30
2018-06-21T23:54:28.639Z,15.40
2018-06-21T23:56:56.954Z,15.00
2018-06-21T23:59:25.283Z,15.10
